sensor_id;sensor_type;location;lat;lon;timestamp;pressure;altitude;pressure_sealevel;temperature;humidity
52745;BME280;38637;49.984;20.426;2023-06-26T00:01:01;99365.69;;;17.17;94.96
52745;BME280;38637;49.984;20.426;2023-06-26T00:03:26;99362.81;;;17.09;95.41
52745;BME280;38637;49.984;20.426;2023-06-26T00:05:51;99365.34;;;17.05;95.69
52745;BME280;38637;49.984;20.426;2023-06-26T00:08:16;99363.50;;;17.00;96.19
52745;BME280;38637;49.984;20.426;2023-06-26T00:10:42;99369.00;;;17.00;96.09
52745;BME280;38637;49.984;20.426;2023-06-26T00:13:07;99364.31;;;17.01;95.98
52745;BME280;38637;49.984;20.426;2023-06-26T00:15:32;99358.31;;;16.99;95.44
52745;BME280;38637;49.984;20.426;2023-06-26T00:17:58;99364.91;;;16.98;95.41
52745;BME280;38637;49.984;20.426;2023-06-26T00:20:23;99360.81;;;16.95;95.10
52745;BME280;38637;49.984;20.426;2023-06-26T00:22:50;99367.47;;;16.94;94.73
52745;BME280;38637;49.984;20.426;2023-06-26T00:25:15;99363.69;;;16.90;94.44
52745;BME280;38637;49.984;20.426;2023-06-26T00:27:40;99354.91;;;16.88;94.48
52745;BME280;38637;49.984;20.426;2023-06-26T00:30:06;99364.09;;;16.84;94.40
52745;BME280;38637;49.984;20.426;2023-06-26T00:32:31;99366.34;;;16.82;94.41
52745;BME280;38637;49.984;20.426;2023-06-26T00:34:56;99363.13;;;16.74;94.87
52745;BME280;38637;49.984;20.426;2023-06-26T00:37:22;99356.06;;;16.68;95.27
52745;BME280;38637;49.984;20.426;2023-06-26T00:39:47;99355.31;;;16.63;95.67
52745;BME280;38637;49.984;20.426;2023-06-26T00:42:12;99363.38;;;16.59;95.87
52745;BME280;38637;49.984;20.426;2023-06-26T00:44:38;99355.59;;;16.47;96.92
52745;BME280;38637;49.984;20.426;2023-06-26T00:47:03;99358.13;;;16.44;97.66
52745;BME280;38637;49.984;20.426;2023-06-26T00:49:28;99352.31;;;16.45;97.42
52745;BME280;38637;49.984;20.426;2023-06-26T00:51:53;99352.50;;;16.49;97.21
52745;BME280;38637;49.984;20.426;2023-06-26T00:54:19;99349.97;;;16.52;96.71
52745;BME280;38637;49.984;20.426;2023-06-26T00:56:47;99348.88;;;16.53;96.47
52745;BME280;38637;49.984;20.426;2023-06-26T00:59:13;99344.97;;;16.54;95.90
52745;BME280;38637;49.984;20.426;2023-06-26T01:01:38;99353.47;;;16.58;95.45
52745;BME280;38637;49.984;20.426;2023-06-26T01:04:03;99353.38;;;16.63;95.02
52745;BME280;38637;49.984;20.426;2023-06-26T01:06:29;99350.31;;;16.65;94.67
52745;BME280;38637;49.984;20.426;2023-06-26T01:09:00;99358.09;;;16.63;94.23
52745;BME280;38637;49.984;20.426;2023-06-26T01:11:26;99351.75;;;16.62;94.17
52745;BME280;38637;49.984;20.426;2023-06-26T01:13:51;99346.00;;;16.59;94.05
52745;BME280;38637;49.984;20.426;2023-06-26T01:16:16;99343.34;;;16.53;94.16
52745;BME280;38637;49.984;20.426;2023-06-26T01:18:44;99335.97;;;16.49;94.20
52745;BME280;38637;49.984;20.426;2023-06-26T01:21:10;99335.47;;;16.47;94.17
52745;BME280;38637;49.984;20.426;2023-06-26T01:23:38;99340.75;;;16.43;93.75
52745;BME280;38637;49.984;20.426;2023-06-26T01:28:37;99341.34;;;16.40;93.50
52745;BME280;38637;49.984;20.426;2023-06-26T01:31:04;99341.13;;;16.37;94.06
52745;BME280;38637;49.984;20.426;2023-06-26T01:33:30;99344.81;;;16.32;94.25
52745;BME280;38637;49.984;20.426;2023-06-26T01:35:56;99341.25;;;16.31;94.48
52745;BME280;38637;49.984;20.426;2023-06-26T01:38:21;99326.63;;;16.31;94.13
52745;BME280;38637;49.984;20.426;2023-06-26T01:40:51;99330.28;;;16.26;94.15
52745;BME280;38637;49.984;20.426;2023-06-26T01:46:04;99341.25;;;16.13;97.56
52745;BME280;38637;49.984;20.426;2023-06-26T01:48:32;99331.66;;;16.10;97.44
52745;BME280;38637;49.984;20.426;2023-06-26T01:50:59;99331.34;;;16.12;97.33
52745;BME280;38637;49.984;20.426;2023-06-26T01:53:25;99330.00;;;16.09;96.69
52745;BME280;38637;49.984;20.426;2023-06-26T01:58:18;99338.06;;;16.05;96.74
52745;BME280;38637;49.984;20.426;2023-06-26T02:00:45;99328.38;;;16.08;96.59
52745;BME280;38637;49.984;20.426;2023-06-26T02:03:11;99340.53;;;16.07;96.14
52745;BME280;38637;49.984;20.426;2023-06-26T02:05:36;99335.00;;;16.07;95.97
52745;BME280;38637;49.984;20.426;2023-06-26T02:08:01;99336.31;;;16.09;95.56
52745;BME280;38637;49.984;20.426;2023-06-26T02:10:27;99326.97;;;16.11;95.40
52745;BME280;38637;49.984;20.426;2023-06-26T02:12:53;99330.53;;;16.11;95.23
52745;BME280;38637;49.984;20.426;2023-06-26T02:15:18;99323.91;;;16.12;94.86
52745;BME280;38637;49.984;20.426;2023-06-26T02:17:50;99328.31;;;16.13;94.85
52745;BME280;38637;49.984;20.426;2023-06-26T02:20:16;99323.91;;;16.12;94.87
52745;BME280;38637;49.984;20.426;2023-06-26T02:22:41;99318.69;;;16.11;94.83
52745;BME280;38637;49.984;20.426;2023-06-26T02:25:07;99318.50;;;16.07;95.16
52745;BME280;38637;49.984;20.426;2023-06-26T02:27:32;99319.38;;;16.02;95.30
52745;BME280;38637;49.984;20.426;2023-06-26T02:29:58;99323.03;;;15.98;95.70
52745;BME280;38637;49.984;20.426;2023-06-26T02:32:23;99321.38;;;15.97;95.68
52745;BME280;38637;49.984;20.426;2023-06-26T02:34:48;99323.03;;;15.98;95.44
52745;BME280;38637;49.984;20.426;2023-06-26T02:37:13;99326.59;;;15.98;95.22
52745;BME280;38637;49.984;20.426;2023-06-26T02:39:39;99326.59;;;15.98;94.55
52745;BME280;38637;49.984;20.426;2023-06-26T02:42:04;99329.84;;;16.00;94.59
52745;BME280;38637;49.984;20.426;2023-06-26T02:44:29;99323.75;;;16.03;94.50
52745;BME280;38637;49.984;20.426;2023-06-26T02:46:54;99330.09;;;16.04;94.67
52745;BME280;38637;49.984;20.426;2023-06-26T02:49:19;99328.16;;;16.04;94.41
52745;BME280;38637;49.984;20.426;2023-06-26T02:51:45;99330.91;;;16.04;94.09
52745;BME280;38637;49.984;20.426;2023-06-26T02:54:10;99321.25;;;16.07;93.83
52745;BME280;38637;49.984;20.426;2023-06-26T02:56:35;99326.66;;;16.12;94.15
52745;BME280;38637;49.984;20.426;2023-06-26T02:59:00;99334.03;;;16.17;93.99
52745;BME280;38637;49.984;20.426;2023-06-26T03:01:26;99328.53;;;16.17;93.76
52745;BME280;38637;49.984;20.426;2023-06-26T03:03:51;99330.16;;;16.18;93.88
52745;BME280;38637;49.984;20.426;2023-06-26T03:06:16;99329.88;;;16.19;94.02
52745;BME280;38637;49.984;20.426;2023-06-26T03:08:42;99331.78;;;16.19;94.18
52745;BME280;38637;49.984;20.426;2023-06-26T03:11:07;99324.97;;;16.16;94.30
52745;BME280;38637;49.984;20.426;2023-06-26T03:13:34;99337.06;;;16.15;94.38
52745;BME280;38637;49.984;20.426;2023-06-26T03:15:59;99328.53;;;16.17;94.50
52745;BME280;38637;49.984;20.426;2023-06-26T03:18:25;99331.28;;;16.17;94.30
52745;BME280;38637;49.984;20.426;2023-06-26T03:20:50;99330.09;;;16.23;94.10
52745;BME280;38637;49.984;20.426;2023-06-26T03:23:15;99338.91;;;16.39;94.05
52745;BME280;38637;49.984;20.426;2023-06-26T03:25:41;99336.19;;;16.52;93.61
52745;BME280;38637;49.984;20.426;2023-06-26T03:28:06;99342.03;;;16.65;93.15
52745;BME280;38637;49.984;20.426;2023-06-26T03:30:31;99332.22;;;16.91;92.48
52745;BME280;38637;49.984;20.426;2023-06-26T03:32:56;99335.72;;;17.25;90.88
52745;BME280;38637;49.984;20.426;2023-06-26T03:35:22;99343.47;;;17.50;89.43
52745;BME280;38637;49.984;20.426;2023-06-26T03:37:48;99336.91;;;17.74;88.34
52745;BME280;38637;49.984;20.426;2023-06-26T03:40:13;99328.81;;;17.91;87.11
52745;BME280;38637;49.984;20.426;2023-06-26T03:42:38;99335.28;;;18.09;86.32
52745;BME280;38637;49.984;20.426;2023-06-26T03:45:04;99331.84;;;18.26;84.63
52745;BME280;38637;49.984;20.426;2023-06-26T03:47:29;99338.09;;;18.31;83.43
52745;BME280;38637;49.984;20.426;2023-06-26T03:49:54;99333.44;;;18.41;83.16
52745;BME280;38637;49.984;20.426;2023-06-26T03:52:19;99330.81;;;18.58;82.79
52745;BME280;38637;49.984;20.426;2023-06-26T03:54:45;99333.38;;;18.77;82.43
52745;BME280;38637;49.984;20.426;2023-06-26T03:57:10;99340.31;;;18.97;81.71
52745;BME280;38637;49.984;20.426;2023-06-26T03:59:36;99338.94;;;19.17;80.56
52745;BME280;38637;49.984;20.426;2023-06-26T04:02:01;99341.94;;;19.38;80.05
52745;BME280;38637;49.984;20.426;2023-06-26T04:04:26;99340.53;;;19.58;78.52
52745;BME280;38637;49.984;20.426;2023-06-26T04:06:52;99336.53;;;19.72;77.67
52745;BME280;38637;49.984;20.426;2023-06-26T04:09:17;99337.69;;;19.89;77.24
52745;BME280;38637;49.984;20.426;2023-06-26T04:11:42;99335.72;;;19.98;75.79
52745;BME280;38637;49.984;20.426;2023-06-26T04:14:07;99350.09;;;20.09;75.73
52745;BME280;38637;49.984;20.426;2023-06-26T04:16:32;99344.88;;;20.25;75.34
52745;BME280;38637;49.984;20.426;2023-06-26T04:18:58;99339.47;;;20.37;74.62
52745;BME280;38637;49.984;20.426;2023-06-26T04:21:23;99344.38;;;20.49;73.94
52745;BME280;38637;49.984;20.426;2023-06-26T04:23:51;99347.16;;;20.57;73.68
52745;BME280;38637;49.984;20.426;2023-06-26T04:26:17;99339.97;;;20.65;73.14
52745;BME280;38637;49.984;20.426;2023-06-26T04:28:42;99347.47;;;20.73;72.06
52745;BME280;38637;49.984;20.426;2023-06-26T04:31:07;99332.91;;;20.85;71.79
52745;BME280;38637;49.984;20.426;2023-06-26T04:33:34;99339.59;;;20.84;71.03
52745;BME280;38637;49.984;20.426;2023-06-26T04:36:01;99337.78;;;20.97;70.92
52745;BME280;38637;49.984;20.426;2023-06-26T04:38:28;99346.72;;;21.02;70.04
52745;BME280;38637;49.984;20.426;2023-06-26T04:40:53;99346.72;;;21.02;69.91
52745;BME280;38637;49.984;20.426;2023-06-26T04:43:18;99345.38;;;21.08;70.48
52745;BME280;38637;49.984;20.426;2023-06-26T04:45:44;99342.13;;;21.15;69.94
52745;BME280;38637;49.984;20.426;2023-06-26T04:48:09;99340.97;;;21.16;69.29
52745;BME280;38637;49.984;20.426;2023-06-26T04:50:34;99340.28;;;21.19;69.14
52745;BME280;38637;49.984;20.426;2023-06-26T04:53:00;99338.28;;;21.28;68.52
52745;BME280;38637;49.984;20.426;2023-06-26T04:55:25;99338.56;;;21.44;69.03
52745;BME280;38637;49.984;20.426;2023-06-26T04:57:51;99334.44;;;21.50;69.65
52745;BME280;38637;49.984;20.426;2023-06-26T05:00:16;99342.47;;;21.52;69.20
52745;BME280;38637;49.984;20.426;2023-06-26T05:02:41;99350.13;;;21.55;69.31
52745;BME280;38637;49.984;20.426;2023-06-26T05:05:06;99343.72;;;21.54;68.53
52745;BME280;38637;49.984;20.426;2023-06-26T05:07:32;99346.94;;;21.65;67.63
52745;BME280;38637;49.984;20.426;2023-06-26T05:09:57;99345.78;;;21.66;66.83
52745;BME280;38637;49.984;20.426;2023-06-26T05:12:22;99350.53;;;21.66;66.76
52745;BME280;38637;49.984;20.426;2023-06-26T05:14:47;99344.00;;;21.70;66.75
52745;BME280;38637;49.984;20.426;2023-06-26T05:17:16;99349.19;;;21.72;65.83
52745;BME280;38637;49.984;20.426;2023-06-26T05:19:41;99348.03;;;21.73;65.47
52745;BME280;38637;49.984;20.426;2023-06-26T05:22:06;99347.91;;;21.69;66.47
52745;BME280;38637;49.984;20.426;2023-06-26T05:24:33;99344.31;;;21.69;65.84
52745;BME280;38637;49.984;20.426;2023-06-26T05:26:59;99344.75;;;21.50;67.20
52745;BME280;38637;49.984;20.426;2023-06-26T05:29:25;99345.38;;;21.55;68.06
52745;BME280;38637;49.984;20.426;2023-06-26T05:31:50;99353.47;;;21.69;67.62
52745;BME280;38637;49.984;20.426;2023-06-26T05:34:16;99350.63;;;21.78;66.83
52745;BME280;38637;49.984;20.426;2023-06-26T05:36:42;99346.00;;;21.82;66.38
52745;BME280;38637;49.984;20.426;2023-06-26T05:39:08;99346.44;;;21.93;66.59
52745;BME280;38637;49.984;20.426;2023-06-26T05:41:33;99349.91;;;21.90;67.19
52745;BME280;38637;49.984;20.426;2023-06-26T05:43:58;99349.97;;;21.81;67.02
52745;BME280;38637;49.984;20.426;2023-06-26T05:46:24;99341.97;;;21.79;67.80
52745;BME280;38637;49.984;20.426;2023-06-26T05:48:49;99340.63;;;21.86;68.49
52745;BME280;38637;49.984;20.426;2023-06-26T05:51:14;99346.09;;;21.94;66.68
52745;BME280;38637;49.984;20.426;2023-06-26T05:53:40;99347.69;;;22.04;67.24
52745;BME280;38637;49.984;20.426;2023-06-26T05:56:05;99341.22;;;22.12;66.82
52745;BME280;38637;49.984;20.426;2023-06-26T05:58:30;99332.19;;;22.15;67.07
52745;BME280;38637;49.984;20.426;2023-06-26T06:00:56;99340.25;;;22.17;67.69
52745;BME280;38637;49.984;20.426;2023-06-26T06:03:21;99336.44;;;22.21;66.26
52745;BME280;38637;49.984;20.426;2023-06-26T06:05:46;99334.53;;;22.13;66.19
52745;BME280;38637;49.984;20.426;2023-06-26T06:08:11;99331.38;;;22.15;65.80
52745;BME280;38637;49.984;20.426;2023-06-26T06:10:37;99337.50;;;22.08;65.98
52745;BME280;38637;49.984;20.426;2023-06-26T06:13:02;99336.13;;;22.14;66.26
52745;BME280;38637;49.984;20.426;2023-06-26T06:15:27;99332.06;;;22.12;66.92
52745;BME280;38637;49.984;20.426;2023-06-26T06:17:52;99335.66;;;22.12;67.33
52745;BME280;38637;49.984;20.426;2023-06-26T06:20:17;99330.53;;;22.23;67.50
52745;BME280;38637;49.984;20.426;2023-06-26T06:22:46;99327.22;;;22.30;67.32
52745;BME280;38637;49.984;20.426;2023-06-26T06:25:13;99336.63;;;22.37;67.28
52745;BME280;38637;49.984;20.426;2023-06-26T06:27:38;99334.31;;;22.39;66.88
52745;BME280;38637;49.984;20.426;2023-06-26T06:30:04;99328.19;;;22.46;67.72
52745;BME280;38637;49.984;20.426;2023-06-26T06:32:29;99325.53;;;22.49;65.95
52745;BME280;38637;49.984;20.426;2023-06-26T06:34:54;99333.69;;;22.55;66.84
52745;BME280;38637;49.984;20.426;2023-06-26T06:37:19;99337.75;;;22.57;66.42
52745;BME280;38637;49.984;20.426;2023-06-26T06:39:45;99328.72;;;22.60;66.23
52745;BME280;38637;49.984;20.426;2023-06-26T06:42:10;99287.56;;;22.33;66.12
52745;BME280;38637;49.984;20.426;2023-06-26T06:44:35;99332.31;;;22.61;64.58
52745;BME280;38637;49.984;20.426;2023-06-26T06:47:00;99326.06;;;22.64;65.44
52745;BME280;38637;49.984;20.426;2023-06-26T06:49:25;99329.31;;;22.66;64.91
52745;BME280;38637;49.984;20.426;2023-06-26T06:51:51;99326.78;;;22.73;65.02
52745;BME280;38637;49.984;20.426;2023-06-26T06:54:16;99322.63;;;22.79;65.10
52745;BME280;38637;49.984;20.426;2023-06-26T06:56:42;99322.72;;;22.83;65.38
52745;BME280;38637;49.984;20.426;2023-06-26T06:59:07;99329.59;;;22.85;64.78
52745;BME280;38637;49.984;20.426;2023-06-26T07:01:32;99323.81;;;22.90;65.69
52745;BME280;38637;49.984;20.426;2023-06-26T07:03:58;99329.16;;;22.96;63.99
52745;BME280;38637;49.984;20.426;2023-06-26T07:06:23;99328.03;;;22.97;64.38
52745;BME280;38637;49.984;20.426;2023-06-26T07:08:48;99327.78;;;23.02;63.82
52745;BME280;38637;49.984;20.426;2023-06-26T07:11:13;99328.38;;;23.07;64.40
52745;BME280;38637;49.984;20.426;2023-06-26T07:13:38;99328.63;;;23.02;59.08
52745;BME280;38637;49.984;20.426;2023-06-26T07:16:04;99324.06;;;22.98;56.63
52745;BME280;38637;49.984;20.426;2023-06-26T07:18:29;99329.16;;;22.96;57.67
52745;BME280;38637;49.984;20.426;2023-06-26T07:20:54;99330.25;;;23.03;58.42
52745;BME280;38637;49.984;20.426;2023-06-26T07:23:19;99334.91;;;23.11;58.96
52745;BME280;38637;49.984;20.426;2023-06-26T07:25:45;99323.50;;;23.16;56.50
52745;BME280;38637;49.984;20.426;2023-06-26T07:28:10;99327.47;;;23.15;55.72
52745;BME280;38637;49.984;20.426;2023-06-26T07:30:35;99335.59;;;23.21;54.74
52745;BME280;38637;49.984;20.426;2023-06-26T07:33:01;99336.41;;;23.21;53.77
52745;BME280;38637;49.984;20.426;2023-06-26T07:35:26;99329.34;;;23.24;54.91
52745;BME280;38637;49.984;20.426;2023-06-26T07:37:52;99329.47;;;23.27;54.27
52745;BME280;38637;49.984;20.426;2023-06-26T07:40:17;99333.97;;;23.32;54.88
52745;BME280;38637;49.984;20.426;2023-06-26T07:42:43;99325.72;;;23.35;55.96
52745;BME280;38637;49.984;20.426;2023-06-26T07:45:08;99325.03;;;23.38;55.21
52745;BME280;38637;49.984;20.426;2023-06-26T07:47:37;99324.81;;;23.44;54.55
52745;BME280;38637;49.984;20.426;2023-06-26T07:50:02;99320.97;;;23.48;54.49
52745;BME280;38637;49.984;20.426;2023-06-26T07:52:28;99321.91;;;23.52;53.79
52745;BME280;38637;49.984;20.426;2023-06-26T07:54:53;99329.47;;;23.52;53.87
52745;BME280;38637;49.984;20.426;2023-06-26T07:57:18;99334.34;;;23.43;52.49
52745;BME280;38637;49.984;20.426;2023-06-26T07:59:44;99330.84;;;23.46;53.31
52745;BME280;38637;49.984;20.426;2023-06-26T08:02:09;99324.56;;;23.49;54.22
52745;BME280;38637;49.984;20.426;2023-06-26T08:04:34;99325.03;;;23.51;54.54
52745;BME280;38637;49.984;20.426;2023-06-26T08:07:00;99319.59;;;23.54;54.31
52745;BME280;38637;49.984;20.426;2023-06-26T08:09:26;99322.00;;;23.56;54.43
52745;BME280;38637;49.984;20.426;2023-06-26T08:11:52;99322.81;;;23.56;53.88
52745;BME280;38637;49.984;20.426;2023-06-26T08:14:17;99323.66;;;23.57;53.58
52745;BME280;38637;49.984;20.426;2023-06-26T08:16:43;99317.38;;;23.60;53.11
52745;BME280;38637;49.984;20.426;2023-06-26T08:19:11;99321.41;;;23.62;53.16
52745;BME280;38637;49.984;20.426;2023-06-26T08:21:37;99332.34;;;23.55;54.03
52745;BME280;38637;49.984;20.426;2023-06-26T08:24:02;99322.50;;;23.46;54.06
52745;BME280;38637;49.984;20.426;2023-06-26T08:26:28;99322.00;;;23.56;54.28
52745;BME280;38637;49.984;20.426;2023-06-26T08:28:53;99319.69;;;23.58;51.19
52745;BME280;38637;49.984;20.426;2023-06-26T08:31:18;99323.88;;;23.64;52.19
52745;BME280;38637;49.984;20.426;2023-06-26T08:33:44;99319.72;;;23.70;54.10
52745;BME280;38637;49.984;20.426;2023-06-26T08:36:09;99316.31;;;23.77;54.23
52745;BME280;38637;49.984;20.426;2023-06-26T08:38:34;99319.31;;;23.84;55.15
52745;BME280;38637;49.984;20.426;2023-06-26T08:40:59;99319.91;;;23.90;53.25
52745;BME280;38637;49.984;20.426;2023-06-26T08:43:25;99320.84;;;23.94;51.96
52745;BME280;38637;49.984;20.426;2023-06-26T08:45:51;99310.59;;;23.98;52.91
52745;BME280;38637;49.984;20.426;2023-06-26T08:48:17;99313.59;;;24.05;51.29
52745;BME280;38637;49.984;20.426;2023-06-26T08:50:43;99319.03;;;24.14;50.60
52745;BME280;38637;49.984;20.426;2023-06-26T08:53:23;99312.13;;;24.23;50.61
52745;BME280;38637;49.984;20.426;2023-06-26T08:55:51;99308.38;;;24.31;49.76
52745;BME280;38637;49.984;20.426;2023-06-26T08:58:17;99312.19;;;24.39;49.40
52745;BME280;38637;49.984;20.426;2023-06-26T09:00:43;99303.44;;;24.53;49.90
52745;BME280;38637;49.984;20.426;2023-06-26T09:03:08;99307.88;;;24.70;48.74
52745;BME280;38637;49.984;20.426;2023-06-26T09:05:34;99301.06;;;24.83;46.76
52745;BME280;38637;49.984;20.426;2023-06-26T09:08:00;99296.09;;;24.92;46.74
52745;BME280;38637;49.984;20.426;2023-06-26T09:10:25;99302.13;;;24.94;46.29
52745;BME280;38637;49.984;20.426;2023-06-26T09:12:50;99302.25;;;24.98;45.23
52745;BME280;38637;49.984;20.426;2023-06-26T09:15:19;99302.25;;;24.98;43.60
52745;BME280;38637;49.984;20.426;2023-06-26T09:17:45;99298.81;;;25.05;44.81
52745;BME280;38637;49.984;20.426;2023-06-26T09:20:11;99297.00;;;25.12;45.39
52745;BME280;38637;49.984;20.426;2023-06-26T09:22:40;99256.00;;;24.85;46.92
52745;BME280;38637;49.984;20.426;2023-06-26T09:25:06;99295.00;;;24.97;44.75
52745;BME280;38637;49.984;20.426;2023-06-26T09:27:32;99294.91;;;25.09;45.76
52745;BME280;38637;49.984;20.426;2023-06-26T09:29:57;99294.69;;;25.14;44.94
52745;BME280;38637;49.984;20.426;2023-06-26T09:32:26;99294.78;;;25.18;46.26
52745;BME280;38637;49.984;20.426;2023-06-26T09:34:52;99293.88;;;25.14;45.30
52745;BME280;38637;49.984;20.426;2023-06-26T09:37:18;99291.63;;;25.19;46.28
52745;BME280;38637;49.984;20.426;2023-06-26T09:39:44;99288.38;;;25.17;44.98
52745;BME280;38637;49.984;20.426;2023-06-26T09:42:10;99292.53;;;25.24;43.11
52745;BME280;38637;49.984;20.426;2023-06-26T09:44:35;99295.47;;;25.31;43.08
52745;BME280;38637;49.984;20.426;2023-06-26T09:47:03;99292.78;;;25.18;41.51
52745;BME280;38637;49.984;20.426;2023-06-26T09:49:29;99291.19;;;25.17;43.70
52745;BME280;38637;49.984;20.426;2023-06-26T09:51:54;99287.00;;;25.27;44.68
52745;BME280;38637;49.984;20.426;2023-06-26T09:54:20;99287.19;;;25.34;44.04
52745;BME280;38637;49.984;20.426;2023-06-26T09:56:46;99280.69;;;25.30;42.25
52745;BME280;38637;49.984;20.426;2023-06-26T09:59:11;99285.56;;;25.33;41.75
52745;BME280;38637;49.984;20.426;2023-06-26T10:01:39;99282.56;;;25.42;42.59
52745;BME280;38637;49.984;20.426;2023-06-26T10:04:04;99288.44;;;25.37;42.89
52745;BME280;38637;49.984;20.426;2023-06-26T10:06:37;99283.69;;;25.21;42.97
52745;BME280;38637;49.984;20.426;2023-06-26T10:09:03;99290.59;;;25.43;42.70
52745;BME280;38637;49.984;20.426;2023-06-26T10:11:32;99276.72;;;25.47;42.95
52745;BME280;38637;49.984;20.426;2023-06-26T10:13:59;99277.59;;;25.51;41.76
52745;BME280;38637;49.984;20.426;2023-06-26T10:16:26;99277.63;;;25.71;44.46
52745;BME280;38637;49.984;20.426;2023-06-26T10:18:57;99276.81;;;25.86;43.35
52745;BME280;38637;49.984;20.426;2023-06-26T10:21:24;99260.53;;;25.92;41.28
52745;BME280;38637;49.984;20.426;2023-06-26T10:23:51;99251.47;;;25.98;41.79
52745;BME280;38637;49.984;20.426;2023-06-26T10:26:18;99258.47;;;26.08;42.53
52745;BME280;38637;49.984;20.426;2023-06-26T10:28:46;99255.78;;;26.11;43.01
52745;BME280;38637;49.984;20.426;2023-06-26T10:31:14;99266.97;;;26.11;41.14
52745;BME280;38637;49.984;20.426;2023-06-26T10:33:40;99255.56;;;26.20;39.90
52745;BME280;38637;49.984;20.426;2023-06-26T10:36:18;99244.13;;;26.09;40.98
52745;BME280;38637;49.984;20.426;2023-06-26T10:41:19;99252.06;;;26.27;41.79
52745;BME280;38637;49.984;20.426;2023-06-26T10:43:44;99250.81;;;26.24;42.01
52745;BME280;38637;49.984;20.426;2023-06-26T10:46:11;99250.59;;;26.33;42.01
52745;BME280;38637;49.984;20.426;2023-06-26T10:48:58;99245.59;;;26.03;41.97
52745;BME280;38637;49.984;20.426;2023-06-26T10:51:24;99235.00;;;25.93;41.69
52745;BME280;38637;49.984;20.426;2023-06-26T10:53:53;99241.59;;;26.04;41.45
52745;BME280;38637;49.984;20.426;2023-06-26T10:56:18;99233.50;;;26.19;41.60
52745;BME280;38637;49.984;20.426;2023-06-26T10:58:43;99230.25;;;26.36;40.70
52745;BME280;38637;49.984;20.426;2023-06-26T11:06:11;99237.34;;;26.72;41.07
52745;BME280;38637;49.984;20.426;2023-06-26T11:08:44;99236.22;;;26.77;40.98
52745;BME280;38637;49.984;20.426;2023-06-26T11:11:09;99231.13;;;26.83;41.72
52745;BME280;38637;49.984;20.426;2023-06-26T11:13:35;99239.78;;;26.97;39.76
52745;BME280;38637;49.984;20.426;2023-06-26T11:16:00;99236.00;;;27.12;39.29
52745;BME280;38637;49.984;20.426;2023-06-26T11:18:26;99240.56;;;27.20;38.52
52745;BME280;38637;49.984;20.426;2023-06-26T11:20:52;99235.09;;;27.27;38.80
52745;BME280;38637;49.984;20.426;2023-06-26T11:23:19;99221.16;;;27.35;38.43
52745;BME280;38637;49.984;20.426;2023-06-26T11:25:46;99221.75;;;27.47;39.27
52745;BME280;38637;49.984;20.426;2023-06-26T11:28:11;99228.19;;;27.52;42.54
52745;BME280;38637;49.984;20.426;2023-06-26T11:30:37;99235.72;;;27.44;41.06
52745;BME280;38637;49.984;20.426;2023-06-26T11:33:05;99232.63;;;27.26;39.48
52745;BME280;38637;49.984;20.426;2023-06-26T11:35:30;99221.44;;;27.03;40.22
52745;BME280;38637;49.984;20.426;2023-06-26T11:37:56;99230.38;;;26.86;42.56
52745;BME280;38637;49.984;20.426;2023-06-26T11:40:22;99233.84;;;26.56;42.31
52745;BME280;38637;49.984;20.426;2023-06-26T11:42:52;99226.13;;;26.30;42.49
52745;BME280;38637;49.984;20.426;2023-06-26T11:45:17;99225.41;;;26.13;42.75
52745;BME280;38637;49.984;20.426;2023-06-26T11:47:42;99226.31;;;26.18;44.46
52745;BME280;38637;49.984;20.426;2023-06-26T11:50:14;99225.97;;;26.23;42.58
52745;BME280;38637;49.984;20.426;2023-06-26T11:52:41;99219.13;;;26.40;43.18
52745;BME280;38637;49.984;20.426;2023-06-26T11:55:06;99215.88;;;26.57;41.66
52745;BME280;38637;49.984;20.426;2023-06-26T11:57:31;99213.81;;;26.77;42.06
52745;BME280;38637;49.984;20.426;2023-06-26T11:59:57;99212.84;;;26.92;42.11
52745;BME280;38637;49.984;20.426;2023-06-26T12:02:22;99213.31;;;27.21;42.93
52745;BME280;38637;49.984;20.426;2023-06-26T12:04:47;99204.81;;;27.40;41.72
52745;BME280;38637;49.984;20.426;2023-06-26T12:07:13;99209.84;;;27.58;41.03
52745;BME280;38637;49.984;20.426;2023-06-26T12:09:42;99208.47;;;27.75;39.90
52745;BME280;38637;49.984;20.426;2023-06-26T12:12:08;99205.78;;;27.82;38.36
52745;BME280;38637;49.984;20.426;2023-06-26T12:14:34;99201.66;;;27.76;40.17
52745;BME280;38637;49.984;20.426;2023-06-26T12:17:09;99206.75;;;27.66;40.11
52745;BME280;38637;49.984;20.426;2023-06-26T12:19:39;99210.81;;;27.69;39.28
52745;BME280;38637;49.984;20.426;2023-06-26T12:22:07;99211.25;;;27.71;40.15
52745;BME280;38637;49.984;20.426;2023-06-26T12:24:33;99208.28;;;27.60;40.60
52745;BME280;38637;49.984;20.426;2023-06-26T12:27:00;99203.78;;;27.52;42.80
52745;BME280;38637;49.984;20.426;2023-06-26T12:29:31;99204.16;;;27.50;42.03
52745;BME280;38637;49.984;20.426;2023-06-26T12:31:57;99204.47;;;27.45;40.69
52745;BME280;38637;49.984;20.426;2023-06-26T12:36:59;99202.16;;;27.51;41.50
52745;BME280;38637;49.984;20.426;2023-06-26T12:39:24;99195.53;;;27.36;39.40
52745;BME280;38637;49.984;20.426;2023-06-26T12:41:53;99202.28;;;27.32;38.14
52745;BME280;38637;49.984;20.426;2023-06-26T12:44:27;99197.34;;;27.21;39.59
52745;BME280;38637;49.984;20.426;2023-06-26T12:46:59;99191.34;;;27.23;38.91
52745;BME280;38637;49.984;20.426;2023-06-26T12:51:57;99181.28;;;27.48;39.33
52745;BME280;38637;49.984;20.426;2023-06-26T12:54:23;99182.44;;;27.44;40.08
52745;BME280;38637;49.984;20.426;2023-06-26T12:56:48;99187.88;;;27.33;39.85
52745;BME280;38637;49.984;20.426;2023-06-26T12:59:13;99183.78;;;27.27;40.78
52745;BME280;38637;49.984;20.426;2023-06-26T13:01:38;99189.53;;;27.11;40.86
52745;BME280;38637;49.984;20.426;2023-06-26T13:04:05;99179.28;;;26.96;42.33